Time;durP1;ratioP1;P1;durP2;ratioP2;P2;SDS_P1;SDS_P2;PMS_P1;PMS_P2;Temp;Humidity;BMP_temperature;BMP_pressure;BME280_temperature;BME280_humidity;BME280_pressure;Samples;Min_cycle;Max_cycle;Signal;HPM_P1;HPM_P2
2023/01/07 00:01:29;;;;;;;1.67;1.55;;;10.40;99.90;;;;;;4977812;28;20192;-84
2023/01/07 00:03:56;;;;;;;1.20;0.90;;;10.40;99.90;;;;;;4977429;28;20204;-85
2023/01/07 00:06:25;;;;;;;1.20;1.10;;;10.40;99.90;;;;;;4946264;29;20271;-85
2023/01/07 00:08:54;;;;;;;1.33;1.10;;;10.40;99.90;;;;;;4940911;29;20192;-85
2023/01/07 00:11:22;;;;;;;2.13;1.40;;;10.40;99.90;;;;;;4942586;29;20666;-84
2023/01/07 00:13:49;;;;;;;4.28;1.20;;;10.40;99.90;;;;;;4961621;29;20545;-82
2023/01/07 00:16:17;;;;;;;1.58;1.10;;;10.30;99.90;;;;;;4941553;29;20287;-82
2023/01/07 00:18:43;;;;;;;2.28;1.27;;;10.30;99.90;;;;;;4944700;29;20181;-82
2023/01/07 00:21:11;;;;;;;1.83;1.05;;;10.30;99.90;;;;;;4959003;29;20267;-82
2023/01/07 00:23:38;;;;;;;0.95;0.85;;;10.30;99.90;;;;;;4941868;29;20224;-83
2023/01/07 00:26:07;;;;;;;2.72;1.90;;;10.30;99.90;;;;;;4941506;29;20196;-81
2023/01/07 00:28:34;;;;;;;1.25;1.10;;;10.20;99.90;;;;;;4958936;29;20532;-82
2023/01/07 00:31:00;;;;;;;1.30;0.95;;;10.20;99.90;;;;;;4941369;29;20290;-82
2023/01/07 00:33:27;;;;;;;4.93;1.00;;;10.20;99.90;;;;;;4941905;29;20204;-82
2023/01/07 00:36:07;;;;;;;1.00;0.90;;;10.20;99.90;;;;;;4941143;29;20195;-82
2023/01/07 00:38:33;;;;;;;2.97;1.00;;;10.10;99.90;;;;;;4958811;29;20263;-82
2023/01/07 00:40:59;;;;;;;1.75;1.30;;;10.20;99.90;;;;;;4941743;29;20220;-83
2023/01/07 00:43:25;;;;;;;3.53;1.20;;;10.20;99.90;;;;;;4941393;29;20216;-82
2023/01/07 00:45:51;;;;;;;2.22;1.10;;;10.10;99.90;;;;;;4941411;29;20188;-82
2023/01/07 00:48:17;;;;;;;1.20;0.90;;;10.10;99.90;;;;;;4958954;29;20177;-82
2023/01/07 00:50:43;;;;;;;1.00;0.80;;;10.10;99.90;;;;;;4940155;29;20232;-83
2023/01/07 00:53:10;;;;;;;1.05;0.80;;;10.10;99.90;;;;;;4925466;29;20436;-82
2023/01/07 00:55:36;;;;;;;1.70;0.75;;;10.10;99.90;;;;;;4942311;29;20193;-83
2023/01/07 00:58:02;;;;;;;1.13;1.00;;;10.10;99.90;;;;;;4941317;29;20204;-83
2023/01/07 01:00:27;;;;;;;1.00;0.90;;;10.10;99.90;;;;;;4925694;29;20188;-82
2023/01/07 01:02:53;;;;;;;0.80;0.67;;;10.10;99.90;;;;;;4941169;29;20294;-82
2023/01/07 01:05:20;;;;;;;1.73;0.80;;;10.00;99.90;;;;;;4941280;29;20191;-82
2023/01/07 01:07:46;;;;;;;1.88;0.80;;;9.90;99.90;;;;;;4941216;29;20269;-83
2023/01/07 01:10:14;;;;;;;1.50;0.87;;;9.90;99.90;;;;;;4925513;29;20230;-82
2023/01/07 01:12:40;;;;;;;1.60;0.85;;;9.90;99.90;;;;;;4960517;29;20417;-82
2023/01/07 01:15:09;;;;;;;1.00;0.90;;;9.80;99.90;;;;;;4927102;29;20337;-83
2023/01/07 01:17:35;;;;;;;0.95;0.80;;;9.80;99.90;;;;;;4942569;29;20425;-82
2023/01/07 01:20:00;;;;;;;1.93;1.10;;;9.70;99.90;;;;;;4944519;29;20244;-85
2023/01/07 01:22:27;;;;;;;0.80;0.77;;;9.70;99.90;;;;;;4956145;29;20208;-90
2023/01/07 01:24:52;;;;;;;2.13;1.05;;;9.60;99.90;;;;;;4955832;29;20173;-89
2023/01/07 01:27:19;;;;;;;1.20;1.10;;;9.60;99.90;;;;;;4975592;29;20177;-82
2023/01/07 01:29:44;;;;;;;0.70;0.70;;;9.60;99.90;;;;;;4953065;29;20646;-82
2023/01/07 01:32:10;;;;;;;1.30;1.00;;;9.60;99.90;;;;;;4964203;29;20232;-81
2023/01/07 01:34:35;;;;;;;1.20;0.73;;;9.60;99.90;;;;;;4941778;29;20220;-82
2023/01/07 01:37:01;;;;;;;2.23;0.97;;;9.60;99.90;;;;;;4957772;29;20181;-82
2023/01/07 01:39:27;;;;;;;4.50;0.90;;;9.60;99.90;;;;;;4941031;29;20173;-82
2023/01/07 01:41:52;;;;;;;1.20;0.80;;;9.60;99.90;;;;;;4940311;29;20212;-82
2023/01/07 01:44:34;;;;;;;1.50;0.87;;;9.50;99.90;;;;;;4960486;29;20260;-81
2023/01/07 01:47:03;;;;;;;0.73;0.70;;;9.50;99.90;;;;;;4958169;29;20809;-81
2023/01/07 01:49:35;;;;;;;0.90;0.80;;;9.50;99.90;;;;;;4957911;29;20575;-82
2023/01/07 01:52:16;;;;;;;3.45;0.90;;;9.40;99.90;;;;;;4939880;29;20185;-82
2023/01/07 01:54:46;;;;;;;0.80;0.70;;;9.40;99.90;;;;;;4957754;29;20172;-81
2023/01/07 01:57:12;;;;;;;1.20;1.10;;;9.40;99.90;;;;;;4940826;29;20284;-82
2023/01/07 01:59:42;;;;;;;0.80;0.70;;;9.40;99.90;;;;;;4940781;29;20181;-86
2023/01/07 02:02:08;;;;;;;0.80;0.65;;;9.30;99.90;;;;;;4940257;29;20276;-81
2023/01/07 02:04:35;;;;;;;0.80;0.75;;;9.30;99.90;;;;;;4941140;29;20181;-81
2023/01/07 02:07:27;;;;;;;0.90;0.80;;;9.20;99.90;;;;;;4957830;29;20197;-82
2023/01/07 02:10:08;;;;;;;0.90;0.73;;;9.10;99.90;;;;;;4954699;28;20276;-82
2023/01/07 02:12:55;;;;;;;0.88;0.70;;;9.10;99.90;;;;;;4940450;29;20327;-81
2023/01/07 02:15:24;;;;;;;1.10;0.80;;;9.10;99.90;;;;;;4957115;29;20248;-84
2023/01/07 02:17:49;;;;;;;1.13;0.80;;;9.00;99.90;;;;;;4957203;29;20630;-82
2023/01/07 02:20:27;;;;;;;0.70;0.70;;;9.00;99.90;;;;;;4957030;29;20187;-81
2023/01/07 02:23:30;;;;;;;1.10;0.80;;;9.00;99.90;;;;;;4939666;29;20303;-81
2023/01/07 02:26:07;;;;;;;1.10;0.80;;;9.00;99.90;;;;;;4940296;29;20203;-81
2023/01/07 02:28:58;;;;;;;0.95;0.75;;;9.00;99.90;;;;;;4939995;29;20196;-81
2023/01/07 02:31:26;;;;;;;1.45;0.70;;;9.00;99.90;;;;;;4957022;29;20184;-81
2023/01/07 02:34:13;;;;;;;1.13;1.00;;;8.90;99.90;;;;;;4939867;29;20202;-82
2023/01/07 02:37:14;;;;;;;1.15;0.88;;;8.90;99.90;;;;;;4957166;29;20403;-82
2023/01/07 02:39:46;;;;;;;1.30;1.00;;;8.80;99.90;;;;;;4900650;29;20190;-81
2023/01/07 02:42:18;;;;;;;2.80;1.00;;;8.80;99.90;;;;;;4950477;29;20217;-81
2023/01/07 02:45:03;;;;;;;0.90;0.80;;;8.70;99.90;;;;;;4958412;29;20204;-81
2023/01/07 02:47:36;;;;;;;3.00;1.00;;;8.80;99.90;;;;;;4940068;29;20184;-81
2023/01/07 02:50:04;;;;;;;1.23;1.13;;;8.80;99.90;;;;;;4956597;29;20652;-82
2023/01/07 02:52:32;;;;;;;1.45;0.90;;;8.80;99.90;;;;;;4957233;28;20545;-82
2023/01/07 02:55:17;;;;;;;1.10;1.00;;;8.70;99.90;;;;;;4939731;29;20216;-81
2023/01/07 02:58:20;;;;;;;1.00;0.90;;;8.70;99.90;;;;;;4957458;29;20181;-81
2023/01/07 03:01:11;;;;;;;1.10;1.00;;;8.70;99.90;;;;;;4940050;29;20184;-81
2023/01/07 03:03:45;;;;;;;1.63;0.98;;;8.70;99.90;;;;;;4939925;29;20227;-82
2023/01/07 03:06:35;;;;;;;1.30;1.00;;;8.60;99.90;;;;;;4939559;29;20219;-81
2023/01/07 03:09:18;;;;;;;1.20;1.00;;;8.60;99.90;;;;;;4940072;29;20236;-81
2023/01/07 03:11:49;;;;;;;1.95;1.00;;;8.60;99.90;;;;;;4939696;29;20187;-81
2023/01/07 03:14:23;;;;;;;1.05;0.80;;;8.60;99.90;;;;;;4958404;28;20169;-82
2023/01/07 03:16:56;;;;;;;1.25;0.90;;;8.60;99.90;;;;;;4943528;29;20533;-86
2023/01/07 03:19:31;;;;;;;4.05;1.35;;;8.60;99.90;;;;;;4943949;29;20204;-81
2023/01/07 03:22:00;;;;;;;2.45;1.52;;;8.60;99.90;;;;;;4942741;29;20244;-81
2023/01/07 03:24:27;;;;;;;1.92;0.90;;;8.60;99.90;;;;;;4960266;29;20183;-81
2023/01/07 03:26:56;;;;;;;1.13;0.90;;;8.60;99.90;;;;;;4960513;29;20185;-81
2023/01/07 03:29:22;;;;;;;0.90;0.75;;;8.60;99.90;;;;;;4960292;29;20236;-82
2023/01/07 03:31:54;;;;;;;2.78;1.10;;;8.60;99.90;;;;;;4943658;29;20185;-82
2023/01/07 03:34:23;;;;;;;1.52;1.02;;;8.50;99.90;;;;;;4943230;29;20542;-81
2023/01/07 03:36:54;;;;;;;1.40;1.20;;;8.50;99.90;;;;;;4942594;29;20547;-86
2023/01/07 03:39:23;;;;;;;1.23;0.90;;;8.60;99.90;;;;;;4943113;29;20204;-81
2023/01/07 03:44:34;;;;;;;2.95;0.90;;;8.70;99.90;;;;;;4959916;29;20168;-81
2023/01/07 03:47:00;;;;;;;1.40;1.07;;;8.70;99.90;;;;;;4959614;29;20180;-81
2023/01/07 03:49:25;;;;;;;2.20;1.03;;;8.70;99.90;;;;;;4942469;29;20464;-81
2023/01/07 03:51:53;;;;;;;1.30;0.90;;;8.80;99.90;;;;;;4959267;29;20231;-82
2023/01/07 03:54:19;;;;;;;1.00;0.90;;;8.80;99.90;;;;;;4942763;29;20192;-84
2023/01/07 03:56:45;;;;;;;2.47;1.90;;;8.80;99.90;;;;;;4927496;29;20188;-81
2023/01/07 03:59:10;;;;;;;1.13;1.00;;;8.90;99.90;;;;;;4926707;29;20278;-81
2023/01/07 04:01:36;;;;;;;1.20;1.10;;;9.00;99.90;;;;;;4926849;29;20192;-81
2023/01/07 04:04:02;;;;;;;1.60;0.93;;;9.10;99.90;;;;;;4926512;29;20220;-82
2023/01/07 04:06:27;;;;;;;2.10;1.15;;;9.30;99.90;;;;;;4942617;28;20189;-81
2023/01/07 04:08:53;;;;;;;2.87;1.53;;;9.40;99.90;;;;;;4926527;29;20276;-86
2023/01/07 04:11:19;;;;;;;1.00;0.90;;;9.50;99.90;;;;;;4926817;29;20189;-81
2023/01/07 04:13:44;;;;;;;1.60;1.20;;;9.60;99.90;;;;;;4959114;29;20173;-81
2023/01/07 04:16:10;;;;;;;1.67;0.90;;;9.60;99.90;;;;;;4926099;29;20256;-80
2023/01/07 04:18:35;;;;;;;2.07;1.07;;;9.70;99.90;;;;;;4942586;29;20185;-81
2023/01/07 04:21:01;;;;;;;4.70;1.37;;;9.80;99.90;;;;;;4930393;29;20280;-81
2023/01/07 04:23:26;;;;;;;2.90;1.30;;;9.80;99.90;;;;;;4926277;29;20209;-81
2023/01/07 04:25:52;;;;;;;1.00;0.90;;;9.90;99.90;;;;;;4940699;29;20625;-84
2023/01/07 04:28:17;;;;;;;1.80;1.30;;;10.00;99.90;;;;;;4942496;29;20185;-81
2023/01/07 04:30:43;;;;;;;1.33;1.23;;;10.00;99.90;;;;;;4941817;29;20621;-81
2023/01/07 04:33:09;;;;;;;1.53;1.43;;;10.00;99.90;;;;;;4941667;29;20207;-80
2023/01/07 04:35:34;;;;;;;1.80;1.10;;;10.00;99.90;;;;;;4926635;29;20188;-80
2023/01/07 04:38:00;;;;;;;1.50;1.40;;;10.00;99.90;;;;;;4941812;29;20301;-81
2023/01/07 04:40:26;;;;;;;1.70;1.10;;;10.00;99.90;;;;;;4941553;29;20587;-80
2023/01/07 04:42:51;;;;;;;2.07;1.27;;;10.10;99.90;;;;;;4941783;29;20300;-80
2023/01/07 04:45:17;;;;;;;2.27;1.23;;;10.00;99.90;;;;;;4941554;29;20459;-81
2023/01/07 04:47:42;;;;;;;4.10;1.40;;;10.10;99.90;;;;;;4925852;29;20560;-81
2023/01/07 04:50:08;;;;;;;1.37;1.27;;;10.10;99.90;;;;;;4958495;29;20239;-81
2023/01/07 04:52:34;;;;;;;2.38;1.40;;;10.10;99.90;;;;;;4958100;29;20195;-80
2023/01/07 04:55:00;;;;;;;2.23;1.10;;;10.20;99.90;;;;;;4926230;29;20197;-85
2023/01/07 04:57:25;;;;;;;1.30;1.20;;;10.10;99.90;;;;;;4942219;29;20668;-81
2023/01/07 04:59:51;;;;;;;1.70;1.20;;;10.20;99.90;;;;;;4958918;29;20188;-81
2023/01/07 05:02:16;;;;;;;1.37;1.23;;;10.20;99.90;;;;;;4941691;29;20216;-81
2023/01/07 05:04:43;;;;;;;6.80;1.87;;;10.20;99.90;;;;;;4941302;29;20185;-81
2023/01/07 05:07:09;;;;;;;1.00;0.88;;;10.20;99.90;;;;;;4941700;29;20189;-81
2023/01/07 05:09:34;;;;;;;1.60;1.07;;;10.20;99.90;;;;;;4957459;29;20184;-81
2023/01/07 05:12:00;;;;;;;1.30;1.10;;;10.30;99.90;;;;;;4957177;29;20221;-81
2023/01/07 05:14:25;;;;;;;1.27;1.00;;;10.30;99.90;;;;;;4941394;29;20177;-81
2023/01/07 05:16:51;;;;;;;1.30;1.10;;;10.30;99.90;;;;;;4941837;29;20213;-81
2023/01/07 05:19:17;;;;;;;2.20;1.20;;;10.20;99.90;;;;;;4958420;29;20264;-81
2023/01/07 05:21:43;;;;;;;1.48;0.95;;;10.30;99.90;;;;;;4941750;29;20196;-81
2023/01/07 05:24:09;;;;;;;2.70;1.17;;;10.30;99.90;;;;;;4958238;29;20191;-81
2023/01/07 05:26:34;;;;;;;2.80;1.07;;;10.30;99.90;;;;;;4925724;29;20188;-81
2023/01/07 05:29:00;;;;;;;1.27;1.17;;;10.20;99.90;;;;;;4941134;29;20614;-81
2023/01/07 05:31:26;;;;;;;1.20;1.10;;;10.20;99.90;;;;;;4957848;29;20185;-81
2023/01/07 05:33:51;;;;;;;1.53;1.10;;;10.20;99.90;;;;;;4941005;29;20185;-81
2023/01/07 05:36:17;;;;;;;4.20;1.23;;;10.20;99.90;;;;;;4940583;28;20275;-81
2023/01/07 05:38:42;;;;;;;2.80;1.43;;;10.20;99.90;;;;;;4940789;29;20185;-80
2023/01/07 05:41:08;;;;;;;2.23;1.13;;;10.10;99.90;;;;;;4958100;29;20768;-81
2023/01/07 05:43:33;;;;;;;2.07;1.40;;;10.20;99.90;;;;;;4940764;29;20736;-81
2023/01/07 05:45:59;;;;;;;2.00;1.20;;;10.20;99.90;;;;;;4961494;28;20183;-81
2023/01/07 05:48:25;;;;;;;1.20;1.10;;;10.10;99.90;;;;;;4963483;28;20266;-80
2023/01/07 05:50:50;;;;;;;3.37;1.43;;;10.10;99.90;;;;;;4975617;28;20246;-81
2023/01/07 05:53:16;;;;;;;1.77;1.10;;;10.10;99.90;;;;;;4943422;28;21039;-81
2023/01/07 05:55:42;;;;;;;2.43;1.20;;;10.10;99.90;;;;;;4975510;28;20188;-81
2023/01/07 05:58:08;;;;;;;1.30;1.10;;;10.10;99.90;;;;;;4975726;28;20499;-82
2023/01/07 06:00:35;;;;;;;2.60;1.17;;;10.00;99.90;;;;;;4977096;28;20180;-80
2023/01/07 06:03:01;;;;;;;1.20;1.10;;;9.90;99.90;;;;;;4976577;28;20514;-81
2023/01/07 06:05:26;;;;;;;1.40;1.13;;;9.90;99.90;;;;;;4976086;28;20192;-81
2023/01/07 06:07:52;;;;;;;1.10;1.00;;;9.80;99.90;;;;;;4977146;28;20430;-80
2023/01/07 06:10:18;;;;;;;1.43;1.00;;;9.80;99.90;;;;;;4975565;28;20216;-81
2023/01/07 06:12:43;;;;;;;1.40;1.30;;;9.80;99.90;;;;;;4943604;28;20195;-80
2023/01/07 06:15:09;;;;;;;1.73;1.60;;;9.70;99.90;;;;;;4976457;28;20176;-81
2023/01/07 06:17:35;;;;;;;1.95;1.58;;;9.70;99.90;;;;;;4959611;28;20184;-81
2023/01/07 06:20:00;;;;;;;2.13;1.63;;;9.70;99.90;;;;;;4975361;28;20191;-83
2023/01/07 06:22:26;;;;;;;1.50;1.40;;;9.70;99.90;;;;;;4959178;28;20267;-82
2023/01/07 06:24:51;;;;;;;1.90;1.10;;;9.70;99.90;;;;;;4959649;28;20180;-82
2023/01/07 06:27:17;;;;;;;1.13;1.03;;;9.80;99.90;;;;;;4959419;28;20184;-82
2023/01/07 06:29:43;;;;;;;3.10;1.90;;;9.80;99.90;;;;;;4975499;28;20188;-82
2023/01/07 06:32:09;;;;;;;1.23;1.13;;;9.80;99.90;;;;;;4975374;28;20538;-82
2023/01/07 06:34:34;;;;;;;2.00;1.80;;;9.80;99.90;;;;;;4977000;28;20205;-81
2023/01/07 06:37:00;;;;;;;1.97;1.20;;;9.90;99.90;;;;;;4975244;28;20183;-90
2023/01/07 06:39:25;;;;;;;2.20;1.30;;;9.90;99.90;;;;;;4959816;28;20904;-81
2023/01/07 06:41:51;;;;;;;2.27;1.20;;;9.90;99.90;;;;;;4958994;28;20212;-82
2023/01/07 06:44:17;;;;;;;1.30;1.20;;;10.00;99.90;;;;;;4959381;28;20204;-82
2023/01/07 06:46:42;;;;;;;1.73;1.27;;;10.00;99.90;;;;;;4977072;28;20531;-82
2023/01/07 06:49:08;;;;;;;1.80;1.40;;;10.00;99.90;;;;;;4957861;28;20240;-82
2023/01/07 06:51:34;;;;;;;2.23;1.37;;;10.00;99.90;;;;;;4975331;28;20184;-82
2023/01/07 06:53:59;;;;;;;2.20;1.57;;;10.00;99.90;;;;;;4975841;28;20547;-82
2023/01/07 06:56:25;;;;;;;1.60;1.33;;;10.00;99.90;;;;;;4975374;28;20416;-82
2023/01/07 06:58:50;;;;;;;1.73;1.33;;;10.00;99.90;;;;;;4975585;28;20181;-81
2023/01/07 07:01:16;;;;;;;1.30;1.20;;;10.00;99.90;;;;;;4975979;28;20259;-82
2023/01/07 07:03:42;;;;;;;1.20;1.10;;;10.10;99.90;;;;;;4975427;28;20208;-83
2023/01/07 07:06:07;;;;;;;4.23;1.40;;;10.10;99.90;;;;;;4959024;28;20892;-83
2023/01/07 07:08:33;;;;;;;1.40;1.30;;;10.10;99.90;;;;;;4976637;28;20176;-82
2023/01/07 07:10:58;;;;;;;1.70;1.60;;;10.10;99.90;;;;;;4975495;28;20189;-81
2023/01/07 07:13:24;;;;;;;1.37;1.03;;;10.10;99.90;;;;;;4976059;28;20585;-82
2023/01/07 07:15:50;;;;;;;1.77;1.30;;;10.10;99.90;;;;;;4975045;28;20191;-81
2023/01/07 07:18:16;;;;;;;4.77;1.30;;;10.10;99.90;;;;;;4943357;28;20199;-82
2023/01/07 07:20:42;;;;;;;2.10;1.00;;;10.10;99.90;;;;;;4975496;28;20184;-81
2023/01/07 07:23:08;;;;;;;1.10;1.00;;;10.10;99.90;;;;;;4975135;28;20215;-82
2023/01/07 07:25:33;;;;;;;3.97;1.23;;;10.10;99.90;;;;;;4975171;28;20626;-82
2023/01/07 07:27:59;;;;;;;2.23;1.20;;;10.20;99.90;;;;;;4975683;28;20204;-82
2023/01/07 07:30:24;;;;;;;1.80;1.37;;;10.20;99.90;;;;;;4958832;28;20220;-82
2023/01/07 07:32:50;;;;;;;1.50;1.17;;;10.20;99.90;;;;;;4974469;28;20196;-82
2023/01/07 07:35:16;;;;;;;2.93;1.40;;;10.10;99.90;;;;;;4974507;28;20184;-82
2023/01/07 07:37:41;;;;;;;1.97;1.10;;;10.10;99.90;;;;;;4974870;28;20230;-82
2023/01/07 07:40:08;;;;;;;2.00;1.30;;;10.10;99.90;;;;;;4958343;28;20196;-82
2023/01/07 07:42:33;;;;;;;1.45;1.30;;;10.20;99.90;;;;;;4974619;28;20242;-82
2023/01/07 07:44:59;;;;;;;1.93;1.17;;;10.10;99.90;;;;;;4976289;28;20212;-82
2023/01/07 07:47:25;;;;;;;1.37;1.03;;;10.10;99.90;;;;;;4974511;28;20421;-81
2023/01/07 07:49:50;;;;;;;2.00;1.63;;;10.10;99.90;;;;;;4974410;28;20643;-82
2023/01/07 07:52:17;;;;;;;2.80;1.40;;;10.10;99.90;;;;;;4975813;28;20211;-82
2023/01/07 07:54:42;;;;;;;2.05;1.15;;;10.10;99.90;;;;;;4980577;28;20181;-82
2023/01/07 07:57:08;;;;;;;1.63;1.53;;;10.10;99.90;;;;;;4980620;28;20231;-82
2023/01/07 07:59:34;;;;;;;1.97;1.77;;;10.00;99.90;;;;;;4960717;28;20664;-82
2023/01/07 08:01:59;;;;;;;2.10;1.60;;;10.10;99.90;;;;;;4962911;28;20285;-82
2023/01/07 08:04:27;;;;;;;1.63;1.37;;;10.10;99.90;;;;;;4979912;28;20529;-82
2023/01/07 08:06:53;;;;;;;3.78;1.65;;;10.00;99.90;;;;;;4978186;28;20184;-84
2023/01/07 08:09:19;;;;;;;1.60;1.38;;;10.00;99.90;;;;;;4978538;28;20239;-82
2023/01/07 08:11:45;;;;;;;2.80;1.53;;;10.10;99.90;;;;;;4977956;28;20607;-82
2023/01/07 08:14:10;;;;;;;2.30;2.10;;;10.10;99.90;;;;;;4977198;28;20235;-83
2023/01/07 08:16:36;;;;;;;2.03;1.30;;;10.10;99.90;;;;;;4977628;28;20244;-82
2023/01/07 08:19:01;;;;;;;1.80;1.60;;;10.10;99.90;;;;;;4978556;28;20176;-82
2023/01/07 08:21:27;;;;;;;1.50;1.40;;;10.10;99.90;;;;;;4960989;28;20204;-82
2023/01/07 08:23:53;;;;;;;2.60;1.40;;;10.10;99.90;;;;;;4945475;28;20223;-82
2023/01/07 08:26:18;;;;;;;1.73;1.33;;;10.20;99.90;;;;;;4961606;28;20603;-82
2023/01/07 08:28:44;;;;;;;3.20;1.60;;;10.20;99.90;;;;;;4976469;28;20180;-80
2023/01/07 08:31:09;;;;;;;5.03;1.53;;;10.20;99.90;;;;;;4943781;28;20296;-80
2023/01/07 08:33:37;;;;;;;2.10;1.37;;;10.20;99.90;;;;;;4940152;29;20537;-80
2023/01/07 08:36:04;;;;;;;1.15;1.05;;;10.30;99.90;;;;;;4955455;28;20806;-80
2023/01/07 08:38:30;;;;;;;3.55;1.92;;;10.30;99.90;;;;;;4976844;28;20669;-79
2023/01/07 08:40:56;;;;;;;1.40;1.30;;;10.30;99.90;;;;;;4976774;28;20211;-80
2023/01/07 08:43:23;;;;;;;1.85;1.65;;;10.30;99.90;;;;;;4978400;28;20216;-81
2023/01/07 08:45:49;;;;;;;2.70;1.33;;;10.30;99.90;;;;;;4977600;28;20180;-82
2023/01/07 08:48:15;;;;;;;4.10;1.45;;;10.30;99.90;;;;;;4939545;29;20185;-81
2023/01/07 08:50:40;;;;;;;2.80;1.53;;;10.30;99.90;;;;;;4957034;29;20236;-81
2023/01/07 08:53:06;;;;;;;1.30;1.20;;;10.30;99.90;;;;;;4971145;28;20467;-81
2023/01/07 08:55:31;;;;;;;2.10;1.80;;;10.40;99.90;;;;;;4945263;28;20569;-81
2023/01/07 08:57:57;;;;;;;2.73;1.70;;;10.30;99.90;;;;;;4969940;28;20238;-81
2023/01/07 09:00:23;;;;;;;1.20;0.90;;;10.30;99.90;;;;;;4981032;28;20195;-81
2023/01/07 09:02:49;;;;;;;1.53;1.43;;;10.30;99.90;;;;;;4948416;28;20211;-81
2023/01/07 09:05:15;;;;;;;1.47;1.23;;;10.20;99.90;;;;;;4980332;28;20850;-81
2023/01/07 09:07:41;;;;;;;1.13;1.00;;;10.20;99.90;;;;;;4997278;28;20191;-81
2023/01/07 09:10:08;;;;;;;1.80;1.25;;;10.20;99.90;;;;;;4979522;28;20191;-82
2023/01/07 09:12:34;;;;;;;2.45;1.50;;;10.20;99.90;;;;;;4978928;28;20495;-81
2023/01/07 09:14:59;;;;;;;3.03;1.50;;;10.20;99.90;;;;;;4947225;28;20186;-81
2023/01/07 09:17:25;;;;;;;1.77;1.50;;;10.20;99.90;;;;;;4979560;28;20187;-81
2023/01/07 09:19:51;;;;;;;1.53;1.40;;;10.20;99.90;;;;;;4962744;28;20216;-82
2023/01/07 09:22:16;;;;;;;1.70;1.30;;;10.30;99.90;;;;;;4963274;28;20655;-81
2023/01/07 09:24:42;;;;;;;2.70;1.73;;;10.30;99.90;;;;;;4977503;28;20180;-81
2023/01/07 09:27:07;;;;;;;2.70;1.60;;;10.30;99.90;;;;;;4979212;28;20190;-81
2023/01/07 09:29:33;;;;;;;1.90;1.30;;;10.40;99.90;;;;;;4945987;28;20203;-81
2023/01/07 09:31:58;;;;;;;2.27;1.00;;;10.40;99.90;;;;;;4947363;28;20704;-81
2023/01/07 09:34:24;;;;;;;2.13;1.40;;;10.50;99.90;;;;;;4970787;28;20184;-81
2023/01/07 09:36:50;;;;;;;1.53;1.17;;;10.50;99.90;;;;;;4960019;28;20271;-81
2023/01/07 09:39:15;;;;;;;2.00;1.30;;;10.50;99.90;;;;;;4943955;28;20183;-81
2023/01/07 09:42:11;;;;;;;1.37;1.27;;;10.50;99.90;;;;;;4959978;28;20192;-81
2023/01/07 09:45:01;;;;;;;2.80;1.50;;;10.60;99.90;;;;;;4984402;28;20563;-81
2023/01/07 09:47:28;;;;;;;3.47;3.03;;;10.60;99.90;;;;;;4979032;28;20190;-81
2023/01/07 09:50:02;;;;;;;1.35;1.25;;;10.70;99.90;;;;;;4975465;28;20681;-81
2023/01/07 09:52:35;;;;;;;1.83;1.35;;;10.80;99.90;;;;;;4975626;28;20278;-81
2023/01/07 09:55:10;;;;;;;1.23;1.10;;;10.90;99.90;;;;;;4976523;28;20207;-81
2023/01/07 09:57:35;;;;;;;1.52;1.10;;;10.90;99.90;;;;;;4938268;29;20165;-81
2023/01/07 10:00:02;;;;;;;1.40;1.30;;;11.00;99.90;;;;;;4953346;29;20619;-81
2023/01/07 10:02:45;;;;;;;1.65;1.55;;;11.10;99.90;;;;;;4953693;28;20414;-81
2023/01/07 10:05:30;;;;;;;1.45;1.35;;;11.20;99.90;;;;;;4956182;28;20620;-82
2023/01/07 10:08:03;;;;;;;3.77;1.50;;;11.40;99.90;;;;;;4957540;28;20606;-82
2023/01/07 10:10:52;;;;;;;2.20;1.42;;;11.50;99.90;;;;;;4956843;28;20416;-82
2023/01/07 10:13:39;;;;;;;1.83;1.20;;;11.60;99.90;;;;;;4949055;28;20212;-82
2023/01/07 10:16:27;;;;;;;1.77;1.40;;;11.80;99.90;;;;;;4957237;28;20433;-82
2023/01/07 10:19:11;;;;;;;1.87;1.43;;;11.80;99.90;;;;;;4957092;28;20520;-81
2023/01/07 10:21:40;;;;;;;1.57;1.33;;;12.00;99.90;;;;;;4955505;28;20808;-81
2023/01/07 10:24:19;;;;;;;1.60;1.20;;;12.10;99.90;;;;;;4974128;28;20439;-82
2023/01/07 10:26:48;;;;;;;2.40;1.73;;;12.20;99.90;;;;;;4975469;28;20427;-80
2023/01/07 10:29:51;;;;;;;1.87;1.47;;;12.30;99.90;;;;;;4973978;28;20453;-84
2023/01/07 10:32:23;;;;;;;1.43;1.30;;;12.30;99.90;;;;;;4972525;28;20538;-81
2023/01/07 10:34:55;;;;;;;1.70;1.60;;;12.30;99.90;;;;;;4958681;28;20427;-82
2023/01/07 10:37:28;;;;;;;2.23;1.80;;;12.40;99.90;;;;;;4955605;28;20452;-82
2023/01/07 10:40:25;;;;;;;1.87;1.40;;;12.40;99.90;;;;;;4956910;28;20763;-81
2023/01/07 10:43:06;;;;;;;2.90;1.90;;;12.30;99.90;;;;;;4954698;28;20464;-82
2023/01/07 10:46:03;;;;;;;1.67;1.40;;;12.20;99.90;;;;;;4947021;28;20402;-82
2023/01/07 10:48:46;;;;;;;2.20;2.00;;;12.20;99.90;;;;;;4942374;29;20972;-82
2023/01/07 10:51:33;;;;;;;2.17;1.80;;;12.20;99.90;;;;;;4967541;28;20474;-82
2023/01/07 10:54:17;;;;;;;2.93;2.20;;;12.10;99.90;;;;;;4958871;28;20924;-82
2023/01/07 10:56:49;;;;;;;1.60;1.50;;;12.10;99.90;;;;;;4975659;28;20888;-82
2023/01/07 10:59:18;;;;;;;3.23;2.23;;;12.10;99.90;;;;;;4958570;28;20420;-81
2023/01/07 11:01:53;;;;;;;2.07;1.30;;;12.00;99.90;;;;;;4975528;28;20423;-81
2023/01/07 11:04:19;;;;;;;2.13;1.23;;;12.00;99.90;;;;;;4958019;28;20433;-80
2023/01/07 11:07:05;;;;;;;1.87;1.43;;;12.00;99.90;;;;;;4975665;28;20483;-81
2023/01/07 11:09:37;;;;;;;2.07;1.10;;;12.00;99.90;;;;;;4958098;28;20183;-82
2023/01/07 11:12:24;;;;;;;2.33;1.57;;;12.10;99.90;;;;;;4975529;28;20506;-81
2023/01/07 11:14:51;;;;;;;2.70;1.30;;;12.00;99.90;;;;;;4958487;28;20479;-82
2023/01/07 11:17:30;;;;;;;1.40;1.30;;;12.10;99.90;;;;;;4958023;28;20540;-83
2023/01/07 11:19:56;;;;;;;3.27;1.87;;;12.20;99.90;;;;;;4957969;28;20423;-82
2023/01/07 11:22:24;;;;;;;2.37;1.40;;;12.10;99.90;;;;;;4941728;28;20889;-82
2023/01/07 11:24:50;;;;;;;2.80;2.27;;;12.10;99.90;;;;;;4958160;28;20187;-81
2023/01/07 11:27:17;;;;;;;1.60;1.13;;;12.10;99.90;;;;;;4958359;28;20427;-82
2023/01/07 11:29:53;;;;;;;1.50;1.40;;;12.00;99.90;;;;;;4957864;28;20184;-82
2023/01/07 11:32:24;;;;;;;1.23;1.05;;;12.00;99.90;;;;;;4975036;28;20435;-82
2023/01/07 11:35:00;;;;;;;0.90;0.70;;;12.00;99.90;;;;;;4945625;29;20239;-82
2023/01/07 11:37:34;;;;;;;1.30;0.97;;;12.00;99.90;;;;;;4942263;29;20802;-81
2023/01/07 11:40:15;;;;;;;1.07;0.93;;;12.10;99.90;;;;;;4942408;29;20475;-81
2023/01/07 11:42:48;;;;;;;0.80;0.70;;;12.10;99.90;;;;;;4941883;29;20472;-81
2023/01/07 11:45:20;;;;;;;1.55;0.70;;;12.10;99.90;;;;;;4976139;28;20181;-81
2023/01/07 11:48:16;;;;;;;1.87;1.10;;;12.10;99.90;;;;;;4961676;28;20290;-81
2023/01/07 11:50:53;;;;;;;2.40;1.10;;;12.40;99.90;;;;;;4960879;28;20463;-81
2023/01/07 11:53:37;;;;;;;1.43;1.10;;;12.80;99.90;;;;;;4978075;28;20439;-82
2023/01/07 11:56:05;;;;;;;2.90;1.20;;;13.00;99.90;;;;;;4961335;28;20430;-81
2023/01/07 11:58:39;;;;;;;1.50;1.07;;;13.60;99.90;;;;;;4960263;28;20435;-81
2023/01/07 12:01:11;;;;;;;0.90;0.70;;;14.00;99.90;;;;;;4961265;28;20529;-81
2023/01/07 12:03:40;;;;;;;1.10;1.00;;;14.30;99.90;;;;;;4960690;28;20479;-82
2023/01/07 12:06:17;;;;;;;1.93;1.23;;;14.70;99.90;;;;;;4960816;28;20447;-81
2023/01/07 12:09:13;;;;;;;1.63;1.17;;;15.00;99.90;;;;;;4960667;28;20427;-81
2023/01/07 12:11:41;;;;;;;1.40;1.10;;;15.00;99.90;;;;;;4983167;28;20781;-82
2023/01/07 12:14:22;;;;;;;2.10;1.10;;;15.20;99.90;;;;;;4945027;28;20420;-81
2023/01/07 12:16:50;;;;;;;1.97;1.00;;;15.30;99.90;;;;;;4960671;28;20424;-81
2023/01/07 12:19:30;;;;;;;1.40;1.23;;;15.10;99.90;;;;;;4945130;28;20481;-81
2023/01/07 12:22:31;;;;;;;1.73;1.33;;;15.20;99.90;;;;;;4960474;28;20428;-81
2023/01/07 12:25:20;;;;;;;1.90;1.50;;;15.00;99.90;;;;;;4971056;28;20439;-81
2023/01/07 12:27:53;;;;;;;1.70;1.60;;;15.10;99.90;;;;;;4977705;28;20487;-82
2023/01/07 12:30:49;;;;;;;1.43;1.33;;;15.20;99.90;;;;;;4959941;28;20452;-82
2023/01/07 12:33:39;;;;;;;1.80;1.40;;;15.40;99.90;;;;;;4992190;28;20577;-82
2023/01/07 12:36:14;;;;;;;1.27;1.17;;;15.20;99.90;;;;;;4977923;28;20418;-81
2023/01/07 12:38:47;;;;;;;1.83;1.33;;;15.20;99.90;;;;;;4959655;28;20448;-81
2023/01/07 12:41:26;;;;;;;2.27;1.40;;;15.20;99.90;;;;;;4977676;28;20474;-81
2023/01/07 12:43:59;;;;;;;1.60;1.50;;;15.10;99.90;;;;;;4959517;28;20525;-81
2023/01/07 12:46:34;;;;;;;1.57;1.47;;;14.90;99.90;;;;;;4958181;28;20424;-81
2023/01/07 12:49:15;;;;;;;1.30;1.20;;;15.00;99.90;;;;;;4976663;28;20493;-82
2023/01/07 12:51:48;;;;;;;2.13;1.37;;;14.70;99.90;;;;;;4959306;28;20478;-81
2023/01/07 12:54:23;;;;;;;1.53;1.40;;;14.60;99.90;;;;;;4959558;28;20431;-81
2023/01/07 12:57:08;;;;;;;1.90;1.20;;;14.50;99.90;;;;;;4977097;28;20411;-82
2023/01/07 12:59:49;;;;;;;1.50;1.10;;;14.20;99.90;;;;;;4977196;28;20408;-82
2023/01/07 13:02:25;;;;;;;3.80;1.30;;;14.20;99.90;;;;;;4977276;28;20502;-81
2023/01/07 13:05:10;;;;;;;1.53;1.43;;;13.90;99.90;;;;;;4959675;28;20485;-81
2023/01/07 13:07:54;;;;;;;1.70;1.33;;;13.80;99.90;;;;;;4976350;28;20404;-81
2023/01/07 13:10:45;;;;;;;1.67;1.57;;;13.70;99.90;;;;;;4976949;28;20764;-81